createdAt,value
2022-10-21T00:00:55.547Z,100.00
2022-10-21T00:03:26.475Z,100.00
2022-10-21T00:05:54.786Z,100.00
2022-10-21T00:08:22.690Z,100.00
2022-10-21T00:10:59.592Z,100.00
2022-10-21T00:13:29.615Z,100.00
2022-10-21T00:16:10.887Z,100.00
2022-10-21T00:18:40.387Z,100.00
2022-10-21T00:21:16.949Z,100.00
2022-10-21T00:23:44.759Z,100.00
2022-10-21T00:26:13.823Z,100.00
2022-10-21T00:28:42.262Z,100.00
2022-10-21T00:31:11.981Z,100.00
2022-10-21T00:33:39.498Z,100.00
2022-10-21T00:36:08.278Z,100.00
2022-10-21T00:38:36.438Z,100.00
2022-10-21T00:41:03.812Z,100.00
2022-10-21T00:43:31.270Z,100.00
2022-10-21T00:46:05.238Z,100.00
2022-10-21T00:48:39.568Z,100.00
2022-10-21T00:51:14.437Z,100.00
2022-10-21T00:53:46.936Z,100.00
2022-10-21T00:56:24.442Z,100.00
2022-10-21T00:58:54.798Z,100.00
2022-10-21T01:01:22.180Z,100.00
2022-10-21T01:03:50.861Z,100.00
2022-10-21T01:06:23.153Z,100.00
2022-10-21T01:08:54.649Z,100.00
2022-10-21T01:11:24.349Z,100.00
2022-10-21T01:14:48.903Z,100.00
2022-10-21T01:17:47.304Z,100.00
2022-10-21T01:20:54.763Z,100.00
2022-10-21T01:27:06.641Z,100.00
2022-10-21T01:30:06.627Z,100.00
2022-10-21T01:32:51.978Z,100.00
2022-10-21T01:36:09.504Z,100.00
2022-10-21T01:39:18.028Z,100.00
2022-10-21T01:42:00.567Z,100.00
2022-10-21T01:44:49.234Z,100.00
2022-10-21T01:47:37.620Z,100.00
2022-10-21T01:50:25.173Z,100.00
2022-10-21T01:53:00.412Z,100.00
2022-10-21T01:55:32.083Z,100.00
2022-10-21T01:58:09.474Z,100.00
2022-10-21T02:00:39.001Z,100.00
2022-10-21T02:03:11.899Z,100.00
2022-10-21T02:05:40.321Z,100.00
2022-10-21T02:08:07.999Z,100.00
2022-10-21T02:10:45.812Z,100.00
2022-10-21T02:13:22.753Z,100.00
2022-10-21T02:15:56.325Z,100.00
2022-10-21T02:18:26.872Z,100.00
2022-10-21T02:21:03.174Z,100.00
2022-10-21T02:23:54.865Z,100.00
2022-10-21T02:26:28.056Z,100.00
2022-10-21T02:28:58.358Z,100.00
2022-10-21T02:32:21.714Z,100.00
2022-10-21T02:35:25.371Z,100.00
2022-10-21T02:38:40.554Z,100.00
2022-10-21T02:41:20.647Z,100.00
2022-10-21T02:44:01.653Z,100.00
2022-10-21T02:46:38.085Z,100.00
2022-10-21T02:49:05.554Z,100.00
2022-10-21T02:51:32.857Z,100.00
2022-10-21T02:54:00.028Z,100.00
2022-10-21T02:58:55.214Z,100.00
2022-10-21T03:01:22.668Z,100.00
2022-10-21T03:03:49.866Z,100.00
2022-10-21T03:06:17.078Z,100.00
2022-10-21T03:08:44.450Z,100.00
2022-10-21T03:11:11.772Z,100.00
2022-10-21T03:13:38.986Z,100.00
2022-10-21T03:16:06.930Z,100.00
2022-10-21T03:18:34.293Z,100.00
2022-10-21T03:21:01.576Z,100.00
2022-10-21T03:23:29.053Z,100.00
2022-10-21T03:25:56.231Z,100.00
2022-10-21T03:28:23.491Z,100.00
2022-10-21T03:30:50.639Z,100.00
2022-10-21T03:33:17.801Z,100.00
2022-10-21T03:35:45.481Z,100.00
2022-10-21T03:38:12.699Z,100.00
2022-10-21T03:40:40.009Z,100.00
2022-10-21T03:43:07.300Z,100.00
2022-10-21T03:45:34.608Z,100.00
2022-10-21T03:48:01.857Z,100.00
2022-10-21T03:50:29.253Z,100.00
2022-10-21T03:52:56.753Z,100.00
2022-10-21T03:55:25.384Z,100.00
2022-10-21T03:57:53.847Z,100.00
2022-10-21T04:00:21.504Z,100.00
2022-10-21T04:02:48.960Z,100.00
2022-10-21T04:05:16.785Z,100.00
2022-10-21T04:07:46.080Z,100.00
2022-10-21T04:10:15.460Z,100.00
2022-10-21T04:12:42.676Z,100.00
2022-10-21T04:15:14.248Z,100.00
2022-10-21T04:17:45.021Z,100.00
2022-10-21T04:20:12.285Z,100.00
2022-10-21T04:22:39.806Z,100.00
2022-10-21T04:25:09.409Z,100.00
2022-10-21T04:27:36.902Z,100.00
2022-10-21T04:30:05.071Z,100.00
2022-10-21T04:32:32.264Z,100.00
2022-10-21T04:34:59.492Z,100.00
2022-10-21T04:37:26.723Z,100.00
2022-10-21T04:39:53.934Z,100.00
2022-10-21T04:42:21.258Z,100.00
2022-10-21T04:44:48.491Z,100.00
2022-10-21T04:47:16.012Z,100.00
2022-10-21T04:49:43.297Z,100.00
2022-10-21T04:52:10.687Z,100.00
2022-10-21T04:54:37.925Z,100.00
2022-10-21T04:57:05.388Z,100.00
2022-10-21T04:59:32.902Z,100.00
2022-10-21T05:04:32.342Z,100.00
2022-10-21T05:06:59.642Z,100.00
2022-10-21T05:09:26.821Z,100.00
2022-10-21T05:11:54.099Z,100.00
2022-10-21T05:14:22.712Z,100.00
2022-10-21T05:16:50.528Z,100.00
2022-10-21T05:19:18.068Z,100.00
2022-10-21T05:21:47.134Z,100.00
2022-10-21T05:24:16.166Z,100.00
2022-10-21T05:26:43.516Z,100.00
2022-10-21T05:29:10.796Z,100.00
2022-10-21T05:31:38.102Z,100.00
2022-10-21T05:34:05.328Z,100.00
2022-10-21T05:36:32.558Z,100.00
2022-10-21T05:38:59.852Z,100.00
2022-10-21T05:41:27.179Z,100.00
2022-10-21T05:43:54.443Z,100.00
2022-10-21T05:46:21.671Z,100.00
2022-10-21T05:51:26.393Z,100.00
2022-10-21T05:53:54.648Z,100.00
2022-10-21T05:56:22.470Z,100.00
2022-10-21T05:58:51.539Z,100.00
2022-10-21T06:01:18.980Z,100.00
2022-10-21T06:03:46.234Z,100.00
2022-10-21T06:06:13.438Z,100.00
2022-10-21T06:08:40.897Z,100.00
2022-10-21T06:11:19.834Z,100.00
2022-10-21T06:13:47.972Z,100.00
2022-10-21T06:16:16.918Z,100.00
2022-10-21T06:18:44.507Z,100.00
2022-10-21T06:21:12.459Z,100.00
2022-10-21T06:23:39.875Z,100.00
2022-10-21T06:26:12.226Z,100.00
2022-10-21T06:28:43.279Z,100.00
2022-10-21T06:31:15.375Z,100.00
2022-10-21T06:33:42.915Z,100.00
2022-10-21T06:36:10.546Z,100.00
2022-10-21T06:38:38.397Z,100.00
2022-10-21T06:41:13.309Z,100.00
2022-10-21T06:43:42.661Z,100.00
2022-10-21T06:46:13.998Z,100.00
2022-10-21T06:48:41.849Z,100.00
2022-10-21T06:51:20.023Z,100.00
2022-10-21T06:53:52.246Z,100.00
2022-10-21T06:56:20.091Z,100.00
2022-10-21T06:58:49.298Z,100.00
2022-10-21T07:01:34.367Z,100.00
2022-10-21T07:04:04.015Z,100.00
2022-10-21T07:09:06.233Z,100.00
2022-10-21T07:11:33.581Z,100.00
2022-10-21T07:14:01.871Z,100.00
2022-10-21T07:16:33.696Z,100.00
2022-10-21T07:19:01.002Z,100.00
2022-10-21T07:21:30.848Z,100.00
2022-10-21T07:24:00.206Z,100.00
2022-10-21T07:26:31.600Z,100.00
2022-10-21T07:29:00.748Z,100.00
2022-10-21T07:31:31.411Z,100.00
2022-10-21T07:34:00.702Z,100.00
2022-10-21T07:36:32.112Z,100.00
2022-10-21T07:39:04.417Z,100.00
2022-10-21T07:41:37.232Z,100.00
2022-10-21T07:44:06.741Z,100.00
2022-10-21T07:46:34.819Z,100.00
2022-10-21T07:49:02.175Z,100.00
2022-10-21T07:51:31.338Z,100.00
2022-10-21T07:54:00.525Z,100.00
2022-10-21T07:56:35.673Z,100.00
2022-10-21T07:59:07.778Z,100.00
2022-10-21T08:01:40.493Z,100.00
2022-10-21T08:04:07.890Z,100.00
2022-10-21T08:06:35.714Z,100.00
2022-10-21T08:09:04.806Z,100.00
2022-10-21T08:11:34.378Z,100.00
2022-10-21T08:14:03.256Z,100.00
2022-10-21T08:16:30.603Z,92.91
2022-10-21T08:19:00.972Z,92.78
2022-10-21T08:21:31.261Z,91.57
2022-10-21T08:24:02.138Z,93.20
2022-10-21T08:26:29.872Z,94.74
2022-10-21T08:31:29.335Z,96.92
2022-10-21T08:33:56.572Z,93.67
2022-10-21T08:36:26.128Z,97.03
2022-10-21T08:38:54.404Z,96.21
2022-10-21T08:41:30.878Z,100.00
2022-10-21T08:44:06.903Z,99.11
2022-10-21T08:46:42.436Z,97.84
2022-10-21T08:49:51.084Z,99.85
2022-10-21T08:52:50.603Z,100.00
2022-10-21T08:55:36.002Z,100.00
2022-10-21T08:58:04.583Z,100.00
2022-10-21T09:00:43.126Z,100.00
2022-10-21T09:03:31.817Z,99.22
2022-10-21T09:06:04.502Z,99.84
2022-10-21T09:08:41.808Z,100.00
2022-10-21T09:11:33.399Z,100.00
2022-10-21T09:14:40.288Z,100.00
2022-10-21T09:17:35.403Z,100.00
2022-10-21T09:20:27.588Z,100.00
2022-10-21T09:23:28.475Z,100.00
2022-10-21T09:26:35.403Z,100.00
2022-10-21T09:29:24.677Z,100.00
2022-10-21T09:31:56.259Z,100.00
2022-10-21T09:35:19.814Z,100.00
2022-10-21T09:37:50.716Z,100.00
2022-10-21T09:40:28.605Z,100.00
2022-10-21T09:43:02.227Z,100.00
2022-10-21T09:45:46.263Z,100.00
2022-10-21T09:48:19.135Z,100.00
2022-10-21T09:51:17.728Z,100.00
2022-10-21T09:53:57.167Z,100.00
2022-10-21T09:56:36.118Z,100.00
2022-10-21T09:59:14.931Z,100.00
2022-10-21T10:01:43.907Z,100.00
2022-10-21T10:04:24.693Z,100.00
2022-10-21T10:06:52.451Z,100.00
2022-10-21T10:09:37.596Z,100.00
2022-10-21T10:12:14.976Z,100.00
2022-10-21T10:14:45.673Z,100.00
2022-10-21T10:17:26.128Z,100.00
2022-10-21T10:20:05.784Z,100.00
2022-10-21T10:23:05.092Z,100.00
2022-10-21T10:25:36.186Z,100.00
2022-10-21T10:28:09.305Z,100.00
2022-10-21T10:30:42.441Z,100.00
2022-10-21T10:33:31.260Z,100.00
2022-10-21T10:36:09.588Z,99.87
2022-10-21T10:38:45.213Z,96.46
2022-10-21T10:41:16.938Z,88.37
2022-10-21T10:43:54.385Z,85.51
2022-10-21T10:46:43.909Z,82.04
2022-10-21T10:49:14.188Z,72.13
2022-10-21T10:51:42.631Z,72.17
2022-10-21T10:54:28.323Z,71.23
2022-10-21T10:57:15.736Z,55.76
2022-10-21T10:59:51.647Z,53.47
2022-10-21T11:02:49.641Z,50.61
2022-10-21T11:05:25.865Z,49.56
2022-10-21T11:07:59.409Z,48.53
2022-10-21T11:10:34.036Z,47.34
2022-10-21T11:13:10.027Z,48.76
2022-10-21T11:15:55.799Z,43.69
2022-10-21T11:18:38.051Z,40.81
2022-10-21T11:21:52.925Z,43.65
2022-10-21T11:24:32.563Z,44.13
2022-10-21T11:27:07.397Z,44.49
2022-10-21T11:29:59.488Z,44.25
2022-10-21T11:32:53.671Z,44.96
2022-10-21T11:35:45.741Z,45.10
2022-10-21T11:38:44.087Z,42.97
2022-10-21T11:41:43.955Z,43.94
2022-10-21T11:44:42.764Z,39.51
2022-10-21T11:47:49.803Z,34.20
2022-10-21T11:50:59.507Z,33.38
2022-10-21T11:53:50.538Z,33.56
2022-10-21T11:56:58.206Z,32.99
2022-10-21T11:59:57.971Z,33.83
2022-10-21T12:02:40.775Z,37.20
2022-10-21T12:05:59.546Z,36.53
2022-10-21T12:09:20.066Z,36.34
2022-10-21T12:12:17.592Z,39.06
2022-10-21T12:15:00.262Z,41.53
2022-10-21T12:17:27.634Z,43.84
2022-10-21T12:20:01.879Z,44.18
2022-10-21T12:22:33.225Z,50.45
2022-10-21T12:25:12.422Z,45.35
2022-10-21T12:27:53.783Z,44.27
2022-10-21T12:30:56.852Z,46.56
2022-10-21T12:33:37.233Z,45.15
2022-10-21T12:36:16.083Z,47.83
2022-10-21T12:38:49.513Z,48.60
2022-10-21T12:41:39.015Z,50.88
2022-10-21T12:44:37.998Z,52.51
2022-10-21T12:47:21.274Z,49.52
2022-10-21T12:50:30.045Z,52.79
2022-10-21T12:53:33.217Z,56.25
2022-10-21T12:56:01.351Z,56.34
2022-10-21T12:58:45.781Z,57.10
2022-10-21T13:01:43.138Z,57.38
2022-10-21T13:04:33.502Z,62.74
2022-10-21T13:07:16.857Z,63.92
2022-10-21T13:10:09.720Z,59.31
2022-10-21T13:12:37.500Z,64.54
2022-10-21T13:15:23.272Z,57.87
2022-10-21T13:17:54.265Z,54.86
2022-10-21T13:20:21.453Z,59.70
2022-10-21T13:23:01.929Z,58.69
2022-10-21T13:25:36.284Z,59.84
2022-10-21T13:28:12.732Z,58.42
2022-10-21T13:30:58.865Z,59.06
2022-10-21T13:33:31.611Z,62.05
2022-10-21T13:36:13.465Z,58.79
2022-10-21T13:38:55.521Z,59.03
2022-10-21T13:41:30.239Z,59.22
2022-10-21T13:44:05.623Z,62.37
2022-10-21T13:46:39.177Z,61.47
2022-10-21T13:49:32.731Z,63.62
2022-10-21T13:52:00.056Z,66.18
2022-10-21T13:54:34.176Z,64.74
2022-10-21T13:57:07.720Z,68.28
2022-10-21T13:59:35.043Z,70.21
2022-10-21T14:02:03.681Z,67.33
2022-10-21T14:04:39.481Z,67.71
2022-10-21T14:07:16.633Z,69.64
2022-10-21T14:09:55.135Z,71.18
2022-10-21T14:12:33.504Z,70.90
2022-10-21T14:15:15.838Z,76.83
2022-10-21T14:17:50.287Z,75.55
2022-10-21T14:20:34.076Z,70.91
2022-10-21T14:23:08.677Z,75.29
2022-10-21T14:25:36.212Z,75.63
2022-10-21T14:28:05.278Z,76.26
2022-10-21T14:30:34.896Z,76.04
2022-10-21T14:33:05.194Z,77.62
2022-10-21T14:35:32.459Z,82.15
2022-10-21T14:38:03.305Z,87.23
2022-10-21T14:40:39.700Z,84.77
2022-10-21T14:43:20.534Z,91.05
2022-10-21T14:45:53.805Z,90.19
2022-10-21T14:48:53.789Z,91.99
2022-10-21T14:51:22.998Z,97.11
2022-10-21T14:54:05.244Z,91.35
2022-10-21T14:56:43.335Z,91.33
2022-10-21T14:59:32.197Z,96.09
2022-10-21T15:02:01.212Z,99.34
2022-10-21T15:04:43.741Z,92.96
2022-10-21T15:07:33.657Z,93.89
2022-10-21T15:10:04.250Z,90.57
2022-10-21T15:12:47.863Z,89.57
2022-10-21T15:15:54.008Z,94.86
2022-10-21T15:18:43.913Z,94.70
2022-10-21T15:21:47.155Z,100.00
2022-10-21T15:24:44.313Z,99.71
2022-10-21T15:27:37.153Z,93.13
2022-10-21T15:30:32.259Z,87.26
2022-10-21T15:32:59.605Z,93.81
2022-10-21T15:35:26.858Z,89.91
2022-10-21T15:37:54.819Z,93.25
2022-10-21T15:40:22.736Z,85.57
2022-10-21T15:42:50.535Z,88.63
2022-10-21T15:45:22.984Z,88.46
2022-10-21T15:47:54.892Z,87.31
2022-10-21T15:50:26.684Z,90.83
2022-10-21T15:55:26.505Z,84.81
2022-10-21T15:57:53.720Z,88.18
2022-10-21T16:00:23.398Z,84.19
2022-10-21T16:02:51.955Z,83.78
2022-10-21T16:05:21.563Z,84.90
2022-10-21T16:07:49.128Z,81.08
2022-10-21T16:10:25.635Z,91.15
2022-10-21T16:12:53.430Z,96.82
2022-10-21T16:15:22.096Z,97.75
2022-10-21T16:17:53.906Z,100.00
2022-10-21T16:20:26.365Z,97.62
2022-10-21T16:22:53.982Z,100.00
2022-10-21T16:25:21.411Z,100.00
2022-10-21T16:27:56.183Z,100.00
2022-10-21T16:30:35.617Z,94.22
2022-10-21T16:33:02.857Z,94.91
2022-10-21T16:35:30.086Z,92.34
2022-10-21T16:37:57.456Z,100.00
2022-10-21T16:40:31.977Z,100.00
2022-10-21T16:42:59.353Z,100.00
2022-10-21T16:45:33.522Z,100.00
2022-10-21T16:48:05.428Z,100.00
2022-10-21T16:50:45.097Z,100.00
2022-10-21T16:53:17.088Z,100.00
2022-10-21T16:55:44.426Z,100.00
2022-10-21T16:58:11.646Z,100.00
2022-10-21T17:00:38.950Z,100.00
2022-10-21T17:03:06.358Z,100.00
2022-10-21T17:08:06.576Z,98.50
2022-10-21T17:10:33.993Z,97.06
2022-10-21T17:13:01.695Z,94.91
2022-10-21T17:15:29.147Z,95.84
2022-10-21T17:17:56.488Z,97.76
2022-10-21T17:20:24.075Z,97.58
2022-10-21T17:22:51.311Z,98.68
2022-10-21T17:25:18.650Z,96.29
2022-10-21T17:27:46.260Z,97.72
2022-10-21T17:30:13.528Z,96.43
2022-10-21T17:35:18.790Z,96.81
2022-10-21T17:37:51.630Z,98.10
2022-10-21T17:40:23.939Z,95.94
2022-10-21T17:42:51.283Z,94.13
2022-10-21T17:45:22.576Z,94.40
2022-10-21T17:47:50.914Z,100.00
2022-10-21T17:50:23.669Z,100.00
2022-10-21T17:52:54.490Z,100.00
2022-10-21T17:55:22.444Z,96.24
2022-10-21T17:57:50.184Z,93.90
2022-10-21T18:00:17.572Z,96.29
2022-10-21T18:02:44.925Z,95.64
2022-10-21T18:05:12.281Z,100.00
2022-10-21T18:07:39.754Z,100.00
2022-10-21T18:10:08.244Z,97.78
2022-10-21T18:12:35.775Z,100.00
2022-10-21T18:15:03.924Z,100.00
2022-10-21T18:17:32.579Z,100.00
2022-10-21T18:19:59.854Z,100.00
2022-10-21T18:22:27.162Z,100.00
2022-10-21T18:24:54.478Z,100.00
2022-10-21T18:27:21.908Z,100.00
2022-10-21T18:29:49.271Z,100.00
2022-10-21T18:32:16.603Z,100.00
2022-10-21T18:34:43.840Z,100.00
2022-10-21T18:37:11.094Z,100.00
2022-10-21T18:39:38.440Z,100.00
2022-10-21T18:42:05.767Z,100.00
2022-10-21T18:44:33.005Z,96.42
2022-10-21T18:47:00.238Z,94.93
2022-10-21T18:49:27.461Z,100.00
2022-10-21T18:51:54.687Z,100.00
2022-10-21T18:54:22.135Z,100.00
2022-10-21T18:56:49.402Z,100.00
2022-10-21T18:59:16.644Z,100.00
2022-10-21T19:01:44.105Z,100.00
2022-10-21T19:06:46.807Z,100.00
2022-10-21T19:09:22.721Z,100.00
2022-10-21T19:11:50.314Z,100.00
2022-10-21T19:14:17.830Z,100.00
2022-10-21T19:16:47.949Z,100.00
2022-10-21T19:19:16.457Z,100.00
2022-10-21T19:21:43.838Z,100.00
2022-10-21T19:24:11.197Z,100.00
2022-10-21T19:26:41.079Z,100.00
2022-10-21T19:29:16.244Z,100.00
2022-10-21T19:31:44.789Z,100.00
2022-10-21T19:34:22.468Z,100.00
2022-10-21T19:36:50.102Z,100.00
2022-10-21T19:39:17.725Z,100.00
2022-10-21T19:41:45.242Z,100.00
2022-10-21T19:44:12.807Z,100.00
2022-10-21T19:46:40.151Z,100.00
2022-10-21T19:49:09.201Z,100.00
2022-10-21T19:51:37.618Z,100.00
2022-10-21T19:54:07.372Z,100.00
2022-10-21T19:56:35.259Z,100.00
2022-10-21T19:59:03.239Z,100.00
2022-10-21T20:01:32.342Z,100.00
2022-10-21T20:04:02.009Z,100.00
2022-10-21T20:06:37.743Z,100.00
2022-10-21T20:09:10.390Z,100.00
2022-10-21T20:11:39.682Z,100.00
2022-10-21T20:14:07.631Z,100.00
2022-10-21T20:16:38.850Z,100.00
2022-10-21T20:19:06.905Z,100.00
2022-10-21T20:21:35.602Z,100.00
2022-10-21T20:24:03.365Z,100.00
2022-10-21T20:26:30.999Z,100.00
2022-10-21T20:29:00.898Z,100.00
2022-10-21T20:31:29.095Z,100.00
2022-10-21T20:33:56.637Z,100.00
2022-10-21T20:36:30.497Z,100.00
2022-10-21T20:38:59.925Z,100.00
2022-10-21T20:41:34.919Z,100.00
2022-10-21T20:44:06.867Z,100.00
2022-10-21T20:46:37.277Z,100.00
2022-10-21T20:49:07.350Z,100.00
2022-10-21T20:51:37.297Z,100.00
2022-10-21T20:54:09.656Z,100.00
2022-10-21T20:56:40.147Z,100.00
2022-10-21T20:59:10.735Z,100.00
2022-10-21T21:01:42.055Z,100.00
2022-10-21T21:04:14.303Z,100.00
2022-10-21T21:06:47.952Z,100.00
2022-10-21T21:12:04.702Z,100.00
2022-10-21T21:14:32.288Z,100.00
2022-10-21T21:16:59.589Z,100.00
2022-10-21T21:19:26.911Z,100.00
2022-10-21T21:21:54.442Z,100.00
2022-10-21T21:24:21.794Z,100.00
2022-10-21T21:26:49.168Z,100.00
2022-10-21T21:29:16.459Z,100.00
2022-10-21T21:31:43.965Z,100.00
2022-10-21T21:34:11.949Z,100.00
2022-10-21T21:36:39.351Z,100.00
2022-10-21T21:39:08.020Z,100.00
2022-10-21T21:41:36.078Z,100.00
2022-10-21T21:44:06.023Z,100.00
2022-10-21T21:46:33.371Z,100.00
2022-10-21T21:49:05.571Z,100.00
2022-10-21T21:51:36.272Z,100.00
2022-10-21T21:54:06.816Z,100.00
2022-10-21T21:56:34.271Z,100.00
2022-10-21T21:59:01.777Z,100.00
2022-10-21T22:01:30.113Z,100.00
2022-10-21T22:03:58.537Z,100.00
2022-10-21T22:06:30.121Z,100.00
2022-10-21T22:08:57.663Z,100.00
2022-10-21T22:11:29.553Z,100.00
2022-10-21T22:13:57.061Z,100.00
2022-10-21T22:16:27.452Z,100.00
2022-10-21T22:18:55.052Z,100.00
2022-10-21T22:21:22.910Z,100.00
2022-10-21T22:23:51.569Z,100.00
2022-10-21T22:26:23.230Z,100.00
2022-10-21T22:28:50.564Z,100.00
2022-10-21T22:31:19.366Z,100.00
2022-10-21T22:33:47.050Z,100.00
2022-10-21T22:36:16.590Z,100.00
2022-10-21T22:38:45.357Z,100.00
2022-10-21T22:41:13.685Z,100.00
2022-10-21T22:43:42.862Z,100.00
2022-10-21T22:48:58.151Z,100.00
2022-10-21T22:51:25.610Z,100.00
2022-10-21T22:53:55.459Z,100.00
2022-10-21T22:56:26.090Z,100.00
2022-10-21T22:58:53.546Z,100.00
2022-10-21T23:01:21.096Z,100.00
2022-10-21T23:03:48.318Z,100.00
2022-10-21T23:06:15.755Z,100.00
2022-10-21T23:08:43.127Z,100.00
2022-10-21T23:11:10.395Z,100.00
2022-10-21T23:13:37.569Z,100.00
2022-10-21T23:16:05.373Z,100.00
2022-10-21T23:18:33.666Z,100.00
2022-10-21T23:21:00.877Z,100.00
2022-10-21T23:23:28.334Z,100.00
2022-10-21T23:25:55.672Z,100.00
2022-10-21T23:28:22.864Z,100.00
2022-10-21T23:30:50.204Z,100.00
2022-10-21T23:33:17.405Z,100.00
2022-10-21T23:35:44.744Z,100.00
2022-10-21T23:38:12.007Z,100.00
2022-10-21T23:40:39.396Z,100.00
2022-10-21T23:43:06.569Z,100.00
2022-10-21T23:45:33.815Z,100.00
2022-10-21T23:48:01.452Z,100.00
2022-10-21T23:50:28.987Z,100.00
2022-10-21T23:52:56.207Z,100.00
2022-10-21T23:55:23.465Z,100.00
2022-10-21T23:57:50.735Z,100.00
